Time;durP1;ratioP1;P1;durP2;ratioP2;P2;SDS_P1;SDS_P2;PMS_P1;PMS_P2;Temp;Humidity;BMP_temperature;BMP_pressure;BME280_temperature;BME280_humidity;BME280_pressure;Samples;Min_cycle;Max_cycle;Signal;HPM_P1;HPM_P2
2023/12/29 00:02:22;;;;;;;16.87;2.40;;;9.80;99.90;;;;;;5026349;28;20157;-64
2023/12/29 00:04:47;;;;;;;18.87;3.07;;;9.80;99.90;;;;;;5030409;28;20513;-64
2023/12/29 00:07:13;;;;;;;12.27;2.60;;;9.80;99.90;;;;;;5030353;28;20037;-64
2023/12/29 00:09:40;;;;;;;12.75;2.42;;;9.80;99.90;;;;;;5028659;28;20046;-64
2023/12/29 00:12:07;;;;;;;9.88;1.63;;;9.80;99.90;;;;;;5028906;28;20053;-64
2023/12/29 00:14:33;;;;;;;17.23;2.60;;;9.70;99.90;;;;;;5029308;28;20033;-65
2023/12/29 00:16:59;;;;;;;11.15;1.90;;;9.70;99.90;;;;;;5029299;28;20505;-64
2023/12/29 00:19:25;;;;;;;12.27;2.35;;;9.70;99.90;;;;;;5030941;28;20270;-64
2023/12/29 00:21:51;;;;;;;12.82;2.58;;;9.70;99.90;;;;;;5029089;28;20085;-64
2023/12/29 00:24:17;;;;;;;16.20;2.77;;;9.70;99.90;;;;;;5030333;28;20038;-64
2023/12/29 00:26:42;;;;;;;12.50;2.53;;;9.70;99.90;;;;;;5030687;28;20040;-64
2023/12/29 00:29:08;;;;;;;15.00;2.47;;;9.70;99.90;;;;;;5029652;28;20035;-64
2023/12/29 00:31:34;;;;;;;9.77;1.65;;;9.70;99.90;;;;;;5030489;28;20049;-65
2023/12/29 00:33:59;;;;;;;8.93;1.95;;;9.60;99.90;;;;;;5030325;28;20049;-64
2023/12/29 00:36:25;;;;;;;12.90;2.00;;;9.60;99.90;;;;;;5029454;28;20414;-64
2023/12/29 00:38:51;;;;;;;9.55;1.80;;;9.60;99.90;;;;;;5029843;28;20137;-64
2023/12/29 00:41:17;;;;;;;18.92;2.30;;;9.60;99.90;;;;;;5029384;28;20565;-64
2023/12/29 00:43:42;;;;;;;15.53;2.33;;;9.50;99.90;;;;;;5029740;28;20410;-64
2023/12/29 00:46:08;;;;;;;14.43;2.53;;;9.50;99.90;;;;;;5029625;28;20402;-64
2023/12/29 00:48:34;;;;;;;12.25;2.22;;;9.50;99.90;;;;;;5028166;28;20513;-64
2023/12/29 00:51:03;;;;;;;12.38;2.08;;;9.50;99.90;;;;;;5028661;28;20095;-64
2023/12/29 00:53:31;;;;;;;12.93;2.80;;;9.50;99.90;;;;;;5029740;28;20041;-65
2023/12/29 00:55:57;;;;;;;15.55;2.65;;;9.50;99.90;;;;;;5030402;28;20069;-64
2023/12/29 00:58:23;;;;;;;15.63;3.35;;;9.50;99.90;;;;;;5028041;28;20077;-63
2023/12/29 01:00:48;;;;;;;10.00;2.20;;;9.50;99.90;;;;;;5028719;28;20045;-64
2023/12/29 01:03:14;;;;;;;13.90;2.40;;;9.50;99.90;;;;;;5028482;28;20048;-64
2023/12/29 01:05:40;;;;;;;16.90;2.33;;;9.50;99.90;;;;;;5029606;28;20060;-64
2023/12/29 01:08:05;;;;;;;10.90;2.13;;;9.50;99.90;;;;;;5023082;28;20291;-64
2023/12/29 01:10:31;;;;;;;22.50;3.47;;;9.60;99.90;;;;;;5028517;28;20050;-64
2023/12/29 01:12:56;;;;;;;14.93;2.47;;;9.50;99.90;;;;;;5028831;28;20291;-64
2023/12/29 01:15:22;;;;;;;14.03;2.23;;;9.50;99.90;;;;;;5028573;28;20029;-64
2023/12/29 01:17:48;;;;;;;11.03;2.20;;;9.50;99.90;;;;;;5029830;28;20306;-64
2023/12/29 01:20:13;;;;;;;6.73;2.03;;;9.50;99.90;;;;;;5029845;28;20079;-64
2023/12/29 01:22:39;;;;;;;7.93;2.55;;;9.60;99.90;;;;;;5027993;28;20045;-64
2023/12/29 01:25:05;;;;;;;13.27;2.07;;;9.60;99.90;;;;;;5028127;28;20434;-64
2023/12/29 01:27:31;;;;;;;9.82;2.25;;;9.60;99.90;;;;;;5028936;28;20037;-63
2023/12/29 01:29:56;;;;;;;19.67;2.75;;;9.60;99.90;;;;;;5010894;28;20041;-64
2023/12/29 01:32:22;;;;;;;13.03;2.80;;;9.70;99.90;;;;;;5028168;28;20071;-64
2023/12/29 01:34:48;;;;;;;16.00;3.15;;;9.70;99.90;;;;;;5027819;28;20284;-64
2023/12/29 01:37:14;;;;;;;11.93;3.03;;;9.70;99.90;;;;;;5028350;28;20086;-64
2023/12/29 01:39:40;;;;;;;13.73;1.73;;;9.70;99.90;;;;;;5027454;28;20360;-64
2023/12/29 01:42:05;;;;;;;15.20;2.03;;;9.70;99.90;;;;;;5027716;28;20680;-64
2023/12/29 01:44:31;;;;;;;24.25;2.83;;;9.80;99.90;;;;;;5028049;28;20053;-64
2023/12/29 01:47:00;;;;;;;21.30;2.43;;;9.80;99.90;;;;;;5027887;28;20068;-64
2023/12/29 01:49:27;;;;;;;13.82;1.52;;;9.80;99.90;;;;;;5027763;28;20867;-64
2023/12/29 01:52:00;;;;;;;11.32;1.98;;;9.80;99.90;;;;;;5031365;28;20045;-64
2023/12/29 01:54:34;;;;;;;12.25;2.67;;;9.80;99.90;;;;;;5034117;28;20037;-64
2023/12/29 01:57:02;;;;;;;10.25;1.88;;;9.80;99.90;;;;;;5030841;28;20122;-64
2023/12/29 01:59:28;;;;;;;15.20;3.13;;;9.80;99.90;;;;;;5029421;28;20038;-64
2023/12/29 02:01:57;;;;;;;;;;;9.80;99.90;;;;;;5028179;28;20044;-64
2023/12/29 02:04:27;;;;;;;18.90;2.58;;;9.80;99.90;;;;;;5027472;28;19924;-63
2023/12/29 02:06:53;;;;;;;10.18;2.15;;;9.70;99.90;;;;;;5028661;28;20041;-64
2023/12/29 02:09:19;;;;;;;;;;;9.70;99.90;;;;;;5027879;28;20045;-64
2023/12/29 02:11:46;;;;;;;17.63;3.55;;;9.70;99.90;;;;;;5027058;28;20360;-64
2023/12/29 02:14:12;;;;;;;15.93;2.50;;;9.70;99.90;;;;;;5028007;28;20252;-64
2023/12/29 02:16:40;;;;;;;16.02;2.00;;;9.70;99.90;;;;;;5029081;28;20041;-64
2023/12/29 02:19:25;;;;;;;12.98;2.50;;;9.70;99.90;;;;;;5027482;28;20117;-64
2023/12/29 02:21:51;;;;;;;11.10;2.03;;;9.70;99.90;;;;;;5027968;28;20081;-64
2023/12/29 02:24:16;;;;;;;17.23;2.37;;;9.60;99.90;;;;;;5011383;28;20119;-64
2023/12/29 02:26:47;;;;;;;12.97;2.40;;;9.70;99.90;;;;;;5010803;28;20612;-64
2023/12/29 02:29:17;;;;;;;9.32;1.63;;;9.70;99.90;;;;;;5028984;28;20429;-64
2023/12/29 02:31:46;;;;;;;11.60;2.30;;;9.70;99.90;;;;;;5028221;28;20037;-64
2023/12/29 02:34:14;;;;;;;12.43;2.55;;;9.70;99.90;;;;;;5029011;28;20041;-64
2023/12/29 02:36:42;;;;;;;9.90;1.83;;;9.70;99.90;;;;;;5028371;28;20064;-65
2023/12/29 02:39:09;;;;;;;11.18;1.52;;;9.70;99.90;;;;;;5028922;28;20033;-64
2023/12/29 02:41:37;;;;;;;10.23;2.15;;;9.70;99.90;;;;;;5028505;28;20053;-64
2023/12/29 02:44:02;;;;;;;8.77;2.10;;;9.70;99.90;;;;;;5028924;28;20565;-64
2023/12/29 02:46:28;;;;;;;8.32;1.75;;;9.70;99.90;;;;;;5028720;28;20137;-64
2023/12/29 02:48:54;;;;;;;8.87;1.83;;;9.80;99.90;;;;;;5026924;28;20071;-64
2023/12/29 02:51:19;;;;;;;10.32;1.88;;;9.80;99.90;;;;;;5028342;28;20045;-64
2023/12/29 02:53:45;;;;;;;14.40;1.93;;;9.80;99.90;;;;;;5027774;28;20037;-65
2023/12/29 02:56:10;;;;;;;9.37;1.57;;;9.90;99.90;;;;;;5027229;28;20044;-64
2023/12/29 02:58:36;;;;;;;5.93;1.73;;;10.00;99.90;;;;;;5026946;28;20381;-64
2023/12/29 03:01:01;;;;;;;12.63;2.03;;;10.00;99.90;;;;;;5028048;28;20781;-65
2023/12/29 03:03:27;;;;;;;9.23;1.87;;;10.10;99.90;;;;;;5026770;28;20045;-64
2023/12/29 03:05:53;;;;;;;9.57;1.70;;;10.10;99.90;;;;;;5028236;28;20318;-64
2023/12/29 03:08:18;;;;;;;8.07;1.47;;;10.20;99.90;;;;;;5028442;28;20513;-65
2023/12/29 03:10:44;;;;;;;12.55;2.17;;;10.20;99.90;;;;;;5028183;28;20038;-64
2023/12/29 03:13:09;;;;;;;11.03;2.00;;;10.20;99.90;;;;;;5030545;28;20057;-64
2023/12/29 03:15:35;;;;;;;9.27;2.03;;;10.20;99.90;;;;;;5030727;28;20796;-64
2023/12/29 03:18:00;;;;;;;13.47;2.60;;;10.30;99.90;;;;;;5031282;28;20097;-64
2023/12/29 03:20:26;;;;;;;10.80;2.60;;;10.30;99.90;;;;;;5030821;28;20087;-65
2023/12/29 03:22:52;;;;;;;15.57;1.77;;;10.30;99.90;;;;;;5031613;28;20045;-64
2023/12/29 03:25:17;;;;;;;7.40;2.30;;;10.30;99.90;;;;;;5014135;28;20106;-64
2023/12/29 03:27:43;;;;;;;4.50;1.47;;;10.30;99.90;;;;;;5031777;28;20034;-64
2023/12/29 03:30:09;;;;;;;11.17;1.90;;;10.20;99.90;;;;;;5031329;28;20272;-64
2023/12/29 03:32:35;;;;;;;12.13;2.40;;;10.20;99.90;;;;;;5029545;28;20116;-64
2023/12/29 03:35:00;;;;;;;10.48;1.88;;;10.10;99.90;;;;;;5030763;28;20133;-64
2023/12/29 03:37:26;;;;;;;11.35;1.98;;;10.10;99.90;;;;;;5030528;28;20489;-64
2023/12/29 03:39:52;;;;;;;13.50;2.80;;;10.10;99.90;;;;;;5031224;28;20040;-64
2023/12/29 03:42:17;;;;;;;8.57;1.57;;;10.00;99.90;;;;;;5029210;28;20045;-64
2023/12/29 03:44:43;;;;;;;13.63;1.57;;;10.10;99.90;;;;;;5031787;28;20624;-64
2023/12/29 03:47:10;;;;;;;12.30;2.57;;;10.00;99.90;;;;;;5013210;28;20045;-64
2023/12/29 03:49:36;;;;;;;19.08;2.10;;;10.10;99.90;;;;;;5030556;28;20049;-64
2023/12/29 03:52:01;;;;;;;14.10;1.88;;;10.10;99.90;;;;;;5030996;28;20038;-64
2023/12/29 03:54:27;;;;;;;14.30;2.40;;;10.10;99.90;;;;;;5013991;28;20417;-64
2023/12/29 03:56:53;;;;;;;11.73;2.30;;;10.10;99.90;;;;;;5023532;28;20432;-64
2023/12/29 03:59:18;;;;;;;14.07;2.20;;;10.20;99.90;;;;;;5029139;28;20087;-64
2023/12/29 04:01:44;;;;;;;11.37;1.70;;;10.20;99.90;;;;;;5029029;28;20907;-64
2023/12/29 04:04:09;;;;;;;10.83;1.93;;;10.20;99.90;;;;;;5031630;28;20501;-64
2023/12/29 04:06:35;;;;;;;11.87;1.93;;;10.30;99.90;;;;;;5030729;28;20308;-64
2023/12/29 04:09:01;;;;;;;15.13;2.87;;;10.20;99.90;;;;;;5029950;28;20045;-65
2023/12/29 04:11:26;;;;;;;13.43;1.93;;;10.20;99.90;;;;;;5029302;28;20473;-64
2023/12/29 04:13:52;;;;;;;18.10;2.07;;;10.20;99.90;;;;;;5029745;28;20124;-64
2023/12/29 04:16:18;;;;;;;18.33;1.88;;;10.30;99.90;;;;;;5012872;28;20359;-65
2023/12/29 04:18:43;;;;;;;14.97;1.77;;;10.20;99.90;;;;;;5029516;28;20117;-64
2023/12/29 04:21:14;;;;;;;9.83;1.53;;;10.20;99.90;;;;;;5013002;28;20103;-64
2023/12/29 04:23:41;;;;;;;13.30;2.08;;;10.20;99.90;;;;;;5028702;28;20068;-64
2023/12/29 04:26:07;;;;;;;12.90;2.10;;;10.20;99.90;;;;;;5030251;28;20098;-64
2023/12/29 04:28:33;;;;;;;20.33;2.92;;;10.10;99.90;;;;;;5028785;28;20049;-64
2023/12/29 04:30:59;;;;;;;18.65;3.33;;;10.10;99.90;;;;;;5030386;28;20465;-64
2023/12/29 04:33:24;;;;;;;14.30;2.53;;;10.20;99.90;;;;;;5035963;28;20069;-64
2023/12/29 04:35:50;;;;;;;9.03;1.70;;;10.20;99.90;;;;;;5035678;28;20415;-64
2023/12/29 04:38:18;;;;;;;17.50;3.15;;;10.20;99.90;;;;;;5028181;28;20045;-64
2023/12/29 04:40:43;;;;;;;19.20;3.40;;;10.20;99.90;;;;;;5028419;28;20048;-64
2023/12/29 04:43:09;;;;;;;25.57;2.77;;;10.10;99.90;;;;;;5029781;28;20037;-64
2023/12/29 04:45:34;;;;;;;18.00;3.10;;;10.10;99.90;;;;;;5030049;28;20282;-64
2023/12/29 04:48:00;;;;;;;12.55;1.73;;;10.10;99.90;;;;;;5028514;28;20072;-64
2023/12/29 04:50:26;;;;;;;16.50;2.42;;;10.10;99.90;;;;;;5028935;28;20041;-64
2023/12/29 04:52:51;;;;;;;16.53;2.50;;;10.10;99.90;;;;;;5028296;28;20049;-64
2023/12/29 04:55:17;;;;;;;19.80;2.90;;;10.10;99.90;;;;;;5028719;28;20334;-64
2023/12/29 04:57:43;;;;;;;10.63;2.28;;;10.10;99.90;;;;;;5029688;28;20033;-64
2023/12/29 05:00:09;;;;;;;11.27;2.17;;;10.10;99.90;;;;;;5030012;28;20132;-64
2023/12/29 05:02:34;;;;;;;12.40;2.33;;;10.10;99.90;;;;;;5028743;28;20033;-64
2023/12/29 05:05:00;;;;;;;18.47;3.00;;;10.00;99.90;;;;;;5029801;28;20045;-64
2023/12/29 05:07:26;;;;;;;16.13;2.40;;;10.00;99.90;;;;;;5029824;28;20633;-64
2023/12/29 05:09:52;;;;;;;12.00;2.20;;;10.00;99.90;;;;;;5027662;28;20117;-64
2023/12/29 05:12:18;;;;;;;18.30;3.45;;;10.00;99.90;;;;;;5029474;28;20124;-64
2023/12/29 05:14:43;;;;;;;14.63;2.37;;;10.00;99.90;;;;;;5027892;28;20033;-64
2023/12/29 05:17:09;;;;;;;30.37;3.77;;;10.00;99.90;;;;;;5028420;28;20292;-65
2023/12/29 05:19:35;;;;;;;20.50;3.53;;;10.00;99.90;;;;;;5029237;28;20299;-65
2023/12/29 05:22:00;;;;;;;13.37;1.93;;;10.00;99.90;;;;;;5029352;28;20068;-64
2023/12/29 05:24:26;;;;;;;24.57;3.33;;;10.00;99.90;;;;;;5028412;28;20771;-64
2023/12/29 05:26:51;;;;;;;13.00;2.40;;;10.00;99.90;;;;;;5029303;28;20038;-64
2023/12/29 05:29:17;;;;;;;21.73;4.00;;;10.00;99.90;;;;;;5029031;28;20413;-65
2023/12/29 05:31:43;;;;;;;25.03;3.87;;;10.00;99.90;;;;;;5029344;28;20353;-64
2023/12/29 05:34:08;;;;;;;18.27;2.50;;;10.00;99.90;;;;;;5029426;28;20272;-64
2023/12/29 05:36:37;;;;;;;14.90;3.33;;;10.00;99.90;;;;;;5029462;28;20069;-64
2023/12/29 05:39:04;;;;;;;18.88;2.97;;;9.90;99.90;;;;;;5027158;28;20423;-64
2023/12/29 05:41:30;;;;;;;17.08;2.80;;;10.00;99.90;;;;;;5028034;28;20454;-64
2023/12/29 05:43:57;;;;;;;20.98;3.80;;;10.00;99.90;;;;;;5028851;28;20116;-64
2023/12/29 05:46:23;;;;;;;14.05;2.58;;;10.00;99.90;;;;;;5029233;28;20403;-64
2023/12/29 05:48:49;;;;;;;21.42;3.20;;;9.90;99.90;;;;;;5027261;28;20106;-64
2023/12/29 05:51:14;;;;;;;19.23;4.13;;;9.90;99.90;;;;;;5028829;28;20046;-64
2023/12/29 05:53:40;;;;;;;15.38;2.88;;;9.90;99.90;;;;;;5028488;28;20033;-64
2023/12/29 05:56:06;;;;;;;19.65;2.85;;;9.90;99.90;;;;;;5027172;28;20041;-64
2023/12/29 05:58:32;;;;;;;20.60;3.00;;;9.90;99.90;;;;;;5026526;28;20045;-64
2023/12/29 06:01:01;;;;;;;16.67;3.42;;;9.90;99.90;;;;;;5026593;28;20043;-64
2023/12/29 06:03:27;;;;;;;18.65;3.60;;;9.90;99.90;;;;;;5029460;28;20049;-64
2023/12/29 06:05:53;;;;;;;14.87;3.40;;;9.90;99.90;;;;;;5027236;28;20045;-65
2023/12/29 06:08:18;;;;;;;26.02;3.30;;;10.00;99.90;;;;;;5027263;28;20490;-64
2023/12/29 06:10:44;;;;;;;18.23;2.70;;;10.00;99.90;;;;;;5027066;28;20041;-65
2023/12/29 06:13:09;;;;;;;14.35;3.42;;;10.00;99.90;;;;;;5028576;28;20049;-64
2023/12/29 06:15:36;;;;;;;23.27;3.80;;;9.90;99.90;;;;;;5028852;28;20041;-64
2023/12/29 06:18:02;;;;;;;;;;;10.00;99.90;;;;;;5027181;28;20795;-65
2023/12/29 06:20:27;;;;;;;17.73;2.65;;;10.00;99.90;;;;;;5027695;28;19917;-64
2023/12/29 06:22:53;;;;;;;20.02;3.17;;;10.00;99.90;;;;;;5026762;28;20037;-64
2023/12/29 06:25:19;;;;;;;18.40;4.07;;;9.90;99.90;;;;;;5027604;28;20041;-64
2023/12/29 06:27:44;;;;;;;26.10;3.88;;;9.90;99.90;;;;;;5026646;28;20045;-64
2023/12/29 06:30:10;;;;;;;19.23;4.37;;;9.90;99.90;;;;;;5028741;28;20030;-64
2023/12/29 06:32:37;;;;;;;16.15;3.55;;;9.90;99.90;;;;;;5027003;28;20532;-64
2023/12/29 06:35:03;;;;;;;16.63;3.92;;;9.90;99.90;;;;;;5027379;28;20092;-64
2023/12/29 06:37:28;;;;;;;;;;;9.90;99.90;;;;;;5010842;28;20041;-65
2023/12/29 06:39:54;;;;;;;21.55;3.47;;;9.90;99.90;;;;;;5027169;28;19932;-64
2023/12/29 06:42:20;;;;;;;22.03;3.60;;;9.80;99.90;;;;;;5028542;28;20421;-64
2023/12/29 06:44:46;;;;;;;29.10;4.23;;;9.80;99.90;;;;;;5027155;28;20124;-64
2023/12/29 06:47:12;;;;;;;;;;;9.90;99.90;;;;;;5029353;28;20540;-65
2023/12/29 06:49:39;;;;;;;16.92;3.15;;;9.90;99.90;;;;;;5032274;28;20289;-64
2023/12/29 06:52:04;;;;;;;;;;;9.90;99.90;;;;;;5032187;28;20033;-64
2023/12/29 06:54:30;;;;;;;25.63;4.20;;;9.90;99.90;;;;;;5030476;28;19924;-64
2023/12/29 06:56:56;;;;;;;24.63;3.65;;;9.90;99.90;;;;;;5030733;28;20586;-64
2023/12/29 06:59:22;;;;;;;24.47;5.37;;;9.90;99.90;;;;;;5031144;28;20478;-64
2023/12/29 07:01:48;;;;;;;;;;;9.90;99.90;;;;;;5031709;28;20279;-64
2023/12/29 07:04:15;;;;;;;22.83;3.95;;;9.90;99.90;;;;;;5032743;28;20387;-64
2023/12/29 07:06:41;;;;;;;23.08;4.13;;;9.90;99.90;;;;;;5032632;28;20047;-64
2023/12/29 07:09:08;;;;;;;20.73;3.72;;;9.90;99.90;;;;;;5036209;28;20033;-64
2023/12/29 07:11:34;;;;;;;26.58;5.05;;;9.90;99.90;;;;;;5026783;28;20559;-64
2023/12/29 07:14:00;;;;;;;26.48;5.28;;;10.00;99.90;;;;;;5024742;28;20038;-64
2023/12/29 07:16:26;;;;;;;24.02;4.40;;;9.90;99.90;;;;;;5034165;28;20107;-64
2023/12/29 07:18:51;;;;;;;27.55;3.92;;;9.90;99.90;;;;;;5029928;28;20441;-64
2023/12/29 07:21:17;;;;;;;26.27;4.37;;;9.90;99.90;;;;;;5028132;28;20632;-64
2023/12/29 07:23:43;;;;;;;;;;;9.90;99.90;;;;;;5009387;28;20284;-64
2023/12/29 07:26:09;;;;;;;30.50;3.58;;;9.90;99.90;;;;;;5027680;28;20032;-64
2023/12/29 07:28:35;;;;;;;27.17;5.55;;;9.90;99.90;;;;;;5029441;28;20414;-64
2023/12/29 07:31:01;;;;;;;24.90;3.67;;;9.90;99.90;;;;;;5026952;28;20111;-64
2023/12/29 07:33:27;;;;;;;33.95;5.28;;;10.00;99.90;;;;;;5028892;28;20047;-64
2023/12/29 07:35:53;;;;;;;27.50;5.18;;;9.90;99.90;;;;;;5030187;28;20038;-64
2023/12/29 07:38:18;;;;;;;16.80;2.85;;;10.00;99.90;;;;;;5031069;28;20472;-64
2023/12/29 07:40:44;;;;;;;21.75;2.75;;;10.00;99.90;;;;;;5033221;28;20110;-65
2023/12/29 07:43:10;;;;;;;39.55;5.05;;;10.00;99.90;;;;;;5031645;28;20072;-64
2023/12/29 07:45:37;;;;;;;25.50;4.28;;;10.00;99.90;;;;;;5030307;28;20045;-64
2023/12/29 07:48:03;;;;;;;20.05;3.03;;;10.00;99.90;;;;;;5029738;28;20159;-64
2023/12/29 07:50:29;;;;;;;21.98;4.30;;;10.00;99.90;;;;;;5031537;28;20387;-65
2023/12/29 07:52:54;;;;;;;25.60;5.25;;;10.00;99.90;;;;;;5030662;28;20068;-64
2023/12/29 07:55:20;;;;;;;35.28;4.38;;;10.00;99.90;;;;;;5013557;28;20417;-64
2023/12/29 07:57:46;;;;;;;26.10;4.67;;;9.90;99.90;;;;;;5031013;28;20044;-64
2023/12/29 08:00:12;;;;;;;;;;;9.90;99.90;;;;;;5030629;28;20346;-64
2023/12/29 08:02:38;;;;;;;21.92;4.28;;;9.80;99.90;;;;;;5030059;28;19917;-64
2023/12/29 08:05:04;;;;;;;23.77;4.93;;;9.70;99.90;;;;;;5031210;28;20524;-64
2023/12/29 08:07:29;;;;;;;11.75;2.33;;;9.60;99.90;;;;;;5030031;28;20128;-64
2023/12/29 08:09:55;;;;;;;17.03;2.03;;;9.50;99.90;;;;;;5031010;28;20045;-64
2023/12/29 08:12:20;;;;;;;21.10;3.70;;;9.50;99.90;;;;;;5030924;28;20049;-64
2023/12/29 08:14:46;;;;;;;20.40;3.87;;;9.50;99.90;;;;;;5028918;28;20033;-64
2023/12/29 08:17:12;;;;;;;21.73;3.65;;;9.50;99.90;;;;;;5021903;28;20560;-64
2023/12/29 08:19:38;;;;;;;13.77;3.28;;;9.50;99.90;;;;;;5028922;28;20390;-64
2023/12/29 08:22:03;;;;;;;24.30;4.20;;;9.40;99.90;;;;;;5030179;28;20041;-65
2023/12/29 08:24:33;;;;;;;17.40;3.83;;;9.50;99.90;;;;;;5031103;28;20084;-65
2023/12/29 08:26:59;;;;;;;29.08;4.18;;;9.60;99.90;;;;;;5030802;28;20041;-64
2023/12/29 08:29:25;;;;;;;21.90;4.53;;;9.70;99.90;;;;;;5029536;28;20457;-64
2023/12/29 08:31:51;;;;;;;19.75;3.95;;;9.70;99.90;;;;;;5010278;28;20041;-64
2023/12/29 08:34:17;;;;;;;24.93;4.00;;;9.80;99.90;;;;;;5026424;28;20561;-64
2023/12/29 08:36:42;;;;;;;16.35;2.58;;;9.80;99.90;;;;;;5027711;28;20272;-64
2023/12/29 08:39:09;;;;;;;14.60;2.23;;;9.90;99.90;;;;;;5025259;28;20038;-64
2023/12/29 08:41:35;;;;;;;18.52;3.67;;;9.90;99.90;;;;;;5022127;28;20112;-64
2023/12/29 08:44:00;;;;;;;13.20;2.22;;;9.90;99.90;;;;;;5019028;28;20068;-65
2023/12/29 08:46:26;;;;;;;24.35;3.03;;;9.90;99.90;;;;;;5019708;28;20037;-65
2023/12/29 08:48:52;;;;;;;20.40;3.00;;;10.00;99.90;;;;;;5023530;28;20049;-64
2023/12/29 08:51:19;;;;;;;11.93;2.47;;;10.00;99.90;;;;;;5028064;28;20042;-64
2023/12/29 08:53:44;;;;;;;13.07;2.28;;;9.90;99.90;;;;;;5023014;28;20033;-65
2023/12/29 08:56:10;;;;;;;19.50;2.60;;;10.00;99.90;;;;;;5027171;28;20088;-65
2023/12/29 08:58:35;;;;;;;11.97;2.03;;;10.00;99.90;;;;;;5028482;28;20112;-65
2023/12/29 09:01:01;;;;;;;12.77;2.33;;;10.00;99.90;;;;;;5023947;28;20500;-64
2023/12/29 09:03:26;;;;;;;7.22;2.15;;;10.10;99.90;;;;;;5021933;28;20122;-65
2023/12/29 09:05:52;;;;;;;11.00;1.70;;;10.00;99.90;;;;;;5025822;28;20041;-65
2023/12/29 09:08:18;;;;;;;10.40;1.67;;;10.10;99.90;;;;;;5022725;28;20387;-65
2023/12/29 09:10:43;;;;;;;12.03;1.97;;;10.10;99.90;;;;;;5014161;28;20041;-64
2023/12/29 09:13:09;;;;;;;10.10;1.73;;;10.20;99.90;;;;;;5026765;28;20312;-65
2023/12/29 09:15:35;;;;;;;12.15;2.00;;;10.20;99.90;;;;;;5029200;28;20048;-65
2023/12/29 09:18:01;;;;;;;8.88;1.92;;;10.20;99.90;;;;;;5028242;28;20080;-65
2023/12/29 09:20:27;;;;;;;11.18;1.70;;;10.20;99.90;;;;;;5028661;28;20068;-65
2023/12/29 09:22:53;;;;;;;9.95;1.33;;;10.20;99.90;;;;;;5007299;28;20048;-65
2023/12/29 09:25:19;;;;;;;17.90;2.85;;;10.20;99.90;;;;;;5001045;28;20068;-64
2023/12/29 09:27:44;;;;;;;7.90;1.80;;;10.20;99.90;;;;;;5024451;28;20435;-65
2023/12/29 09:30:10;;;;;;;12.60;1.63;;;10.20;99.90;;;;;;5024765;28;20652;-65
2023/12/29 09:32:36;;;;;;;13.90;2.42;;;10.20;99.90;;;;;;5006094;28;20442;-65
2023/12/29 09:35:03;;;;;;;12.93;2.00;;;10.20;99.90;;;;;;5019688;28;20029;-65
2023/12/29 09:37:28;;;;;;;12.60;2.20;;;10.20;99.90;;;;;;5015848;28;20042;-66
2023/12/29 09:39:54;;;;;;;9.97;1.67;;;10.20;99.90;;;;;;5023139;28;20417;-65
2023/12/29 09:42:24;;;;;;;11.30;1.83;;;10.10;99.90;;;;;;5023127;28;20514;-65
2023/12/29 09:44:51;;;;;;;9.65;1.83;;;10.10;99.90;;;;;;5024260;28;20287;-65
2023/12/29 09:47:23;;;;;;;13.85;1.80;;;10.10;99.90;;;;;;5021908;28;20048;-65
2023/12/29 09:49:49;;;;;;;8.77;1.60;;;10.00;99.90;;;;;;5027787;28;20079;-64
2023/12/29 09:52:16;;;;;;;;;;;10.00;99.90;;;;;;5027934;28;20041;-65
2023/12/29 09:54:42;;;;;;;7.60;1.77;;;10.00;99.90;;;;;;5027140;28;19928;-65
2023/12/29 09:57:09;;;;;;;4.95;0.95;;;9.90;99.90;;;;;;5026816;28;20037;-64
2023/12/29 09:59:38;;;;;;;8.60;0.93;;;9.90;99.90;;;;;;5059917;28;20401;-64
2023/12/29 10:02:05;;;;;;;5.72;0.95;;;9.80;99.90;;;;;;5021632;28;20048;-65
2023/12/29 10:04:31;;;;;;;5.97;0.70;;;9.70;99.90;;;;;;5024374;28;20041;-64
2023/12/29 10:06:59;;;;;;;4.13;1.13;;;9.50;99.90;;;;;;5023373;28;20052;-64
2023/12/29 10:09:27;;;;;;;4.65;1.17;;;9.50;99.90;;;;;;5024760;28;20030;-64
2023/12/29 10:11:54;;;;;;;5.45;0.80;;;9.40;99.90;;;;;;5027713;28;20050;-64
2023/12/29 10:14:26;;;;;;;3.42;0.88;;;9.30;99.90;;;;;;5021548;28;20049;-64
2023/12/29 10:17:06;;;;;;;5.15;0.80;;;9.30;99.90;;;;;;5023086;28;20044;-64
2023/12/29 10:19:41;;;;;;;5.18;0.70;;;9.30;99.90;;;;;;5024920;28;20438;-64
2023/12/29 10:22:24;;;;;;;4.57;1.05;;;9.30;99.90;;;;;;5010068;28;20088;-64
2023/12/29 10:24:51;;;;;;;5.97;0.50;;;9.30;99.90;;;;;;5026983;28;20076;-64
2023/12/29 10:27:16;;;;;;;13.05;1.15;;;9.10;99.90;;;;;;5029368;28;20149;-63
2023/12/29 10:29:42;;;;;;;7.80;0.98;;;9.10;99.90;;;;;;5031440;28;20144;-63
2023/12/29 10:32:09;;;;;;;2.57;0.43;;;8.90;99.90;;;;;;5030810;28;20037;-66
2023/12/29 10:34:35;;;;;;;1.48;0.47;;;8.90;99.90;;;;;;5030628;28;20496;-65
2023/12/29 10:37:13;;;;;;;1.77;0.50;;;8.80;99.90;;;;;;5030864;28;20037;-66
2023/12/29 10:39:44;;;;;;;4.05;0.30;;;8.50;99.90;;;;;;5028694;28;20288;-66
2023/12/29 10:42:10;;;;;;;3.42;0.45;;;8.20;99.90;;;;;;5030266;28;20478;-63
2023/12/29 10:44:37;;;;;;;4.25;0.38;;;7.90;99.90;;;;;;5028559;28;20067;-63
2023/12/29 10:47:12;;;;;;;1.70;0.30;;;7.80;99.90;;;;;;5025224;28;20040;-63
2023/12/29 10:49:40;;;;;;;3.40;0.60;;;7.60;99.90;;;;;;5027820;28;20124;-63
2023/12/29 10:52:16;;;;;;;3.80;1.13;;;7.50;99.90;;;;;;5025902;28;20045;-63
2023/12/29 10:54:42;;;;;;;3.17;0.40;;;7.50;99.90;;;;;;5029902;28;20413;-63
2023/12/29 10:57:11;;;;;;;6.03;0.40;;;7.50;99.90;;;;;;5028646;28;20045;-63
2023/12/29 10:59:37;;;;;;;2.95;0.20;;;7.50;99.90;;;;;;5027736;28;20040;-63
2023/12/29 11:02:03;;;;;;;2.58;0.30;;;7.40;99.90;;;;;;5027167;28;20045;-63
2023/12/29 11:04:29;;;;;;;4.07;0.30;;;7.50;99.90;;;;;;5030269;28;20130;-63
2023/12/29 11:06:55;;;;;;;3.03;0.40;;;7.60;99.90;;;;;;5040969;28;20037;-63
2023/12/29 11:09:31;;;;;;;6.60;1.03;;;7.80;99.90;;;;;;5028790;28;20037;-63
2023/12/29 11:12:04;;;;;;;2.77;0.50;;;7.90;99.90;;;;;;5029980;28;20617;-63
2023/12/29 11:14:30;;;;;;;6.57;1.27;;;8.00;99.90;;;;;;5026845;28;20612;-63
2023/12/29 11:17:00;;;;;;;7.78;0.65;;;8.10;99.90;;;;;;5030439;28;20108;-63
2023/12/29 11:19:26;;;;;;;4.60;1.00;;;8.20;99.90;;;;;;5027842;28;20171;-63
2023/12/29 11:21:54;;;;;;;;;;;8.30;99.90;;;;;;5030765;28;20044;-63
2023/12/29 11:24:20;;;;;;;5.85;1.45;;;8.40;99.90;;;;;;5031118;28;19923;-64
2023/12/29 11:26:46;;;;;;;5.18;0.82;;;8.60;99.90;;;;;;5028525;28;20048;-64
2023/12/29 11:29:12;;;;;;;8.57;1.60;;;8.60;99.90;;;;;;5028919;28;20095;-63
2023/12/29 11:31:39;;;;;;;8.73;1.65;;;8.70;99.90;;;;;;5021618;28;20060;-63
2023/12/29 11:34:37;;;;;;;10.45;2.53;;;8.80;99.90;;;;;;5030730;28;20057;-63
2023/12/29 11:37:33;;;;;;;16.27;2.55;;;8.90;99.90;;;;;;5027018;28;20052;-63
2023/12/29 11:40:17;;;;;;;10.88;2.05;;;9.00;99.90;;;;;;5009140;28;20045;-63
2023/12/29 11:42:45;;;;;;;14.10;2.10;;;9.10;99.90;;;;;;5021299;28;20462;-63
2023/12/29 11:45:35;;;;;;;11.85;2.20;;;9.20;99.90;;;;;;5027119;28;20132;-63
2023/12/29 11:48:02;;;;;;;12.38;2.08;;;9.30;99.90;;;;;;5030789;28;20073;-64
2023/12/29 11:50:29;;;;;;;10.02;1.63;;;9.40;99.90;;;;;;5029959;28;20096;-63
2023/12/29 11:52:54;;;;;;;12.38;2.13;;;9.50;99.90;;;;;;5026388;28;20091;-63
2023/12/29 11:55:20;;;;;;;8.80;1.57;;;9.70;99.90;;;;;;5029399;28;20073;-63
2023/12/29 11:57:46;;;;;;;11.52;1.85;;;9.80;99.90;;;;;;5021912;28;20330;-63
2023/12/29 12:00:12;;;;;;;12.57;2.57;;;9.90;99.90;;;;;;5026390;28;20042;-65
2023/12/29 12:02:38;;;;;;;7.80;1.42;;;10.00;99.90;;;;;;5026764;28;20331;-64
2023/12/29 12:05:04;;;;;;;;;;;10.00;99.90;;;;;;5010559;28;20045;-63
2023/12/29 12:07:31;;;;;;;10.23;1.90;;;10.10;99.90;;;;;;5029772;28;20024;-63
2023/12/29 12:10:16;;;;;;;;;;;10.20;99.90;;;;;;5029468;28;20037;-66
2023/12/29 12:12:42;;;;;;;9.93;1.80;;;10.30;99.90;;;;;;5028882;28;19963;-65
2023/12/29 12:15:27;;;;;;;13.20;1.55;;;10.40;99.90;;;;;;5010924;28;20037;-65
2023/12/29 12:17:53;;;;;;;6.78;1.20;;;10.50;99.90;;;;;;5016096;28;20057;-63
2023/12/29 12:20:19;;;;;;;12.00;1.35;;;10.60;99.90;;;;;;5024167;28;20476;-63
2023/12/29 12:22:46;;;;;;;10.30;0.93;;;10.60;99.90;;;;;;5031953;28;20413;-64
2023/12/29 12:25:12;;;;;;;10.20;1.77;;;10.60;99.90;;;;;;5036991;28;20041;-64
2023/12/29 12:27:38;;;;;;;7.68;1.85;;;10.60;99.90;;;;;;5030661;28;20124;-64
2023/12/29 12:30:04;;;;;;;;;;;10.70;99.90;;;;;;5024717;28;20099;-64
2023/12/29 12:32:30;;;;;;;10.18;1.60;;;10.80;99.90;;;;;;5029919;28;19925;-65
2023/12/29 12:34:56;;;;;;;8.65;1.42;;;11.00;99.90;;;;;;5029791;28;20049;-64
2023/12/29 12:37:29;;;;;;;7.95;1.00;;;11.30;99.90;;;;;;5029364;28;21010;-64
2023/12/29 12:39:55;;;;;;;11.38;1.27;;;11.30;99.90;;;;;;5024181;28;20037;-63
2023/12/29 12:42:22;;;;;;;11.13;2.00;;;11.30;99.90;;;;;;5026067;28;20041;-64
2023/12/29 12:45:09;;;;;;;15.70;2.30;;;11.20;99.90;;;;;;5027881;28;20517;-64
2023/12/29 12:47:45;;;;;;;;;;;11.10;99.90;;;;;;5027493;28;20315;-64
2023/12/29 12:50:14;;;;;;;13.63;1.50;;;11.10;99.90;;;;;;5025833;28;19936;-64